Time;durP1;ratioP1;P1;durP2;ratioP2;P2;SDS_P1;SDS_P2;PMS_P1;PMS_P2;Temp;Humidity;BMP_temperature;BMP_pressure;BME280_temperature;BME280_humidity;BME280_pressure;Samples;Min_cycle;Max_cycle;Signal;HPM_P1;HPM_P2
2022/10/18 00:02:24;;;;;;;20.52;9.43;;;;;;;11.63;100.00;102707.00;7373466;19;20017;-70
2022/10/18 00:04:53;;;;;;;16.95;8.93;;;;;;;11.58;100.00;102705.94;7371970;19;20025;-70
2022/10/18 00:07:23;;;;;;;17.52;9.15;;;;;;;11.51;100.00;102706.53;7375625;19;20010;-70
2022/10/18 00:09:56;;;;;;;21.23;10.48;;;;;;;11.48;100.00;102713.44;7369760;19;20014;-70
2022/10/18 00:12:25;;;;;;;17.98;9.10;;;;;;;11.41;100.00;102716.69;7370879;19;20014;-71
2022/10/18 00:14:55;;;;;;;13.88;8.50;;;;;;;11.35;100.00;102716.47;7374888;19;20019;-68
2022/10/18 00:17:25;;;;;;;14.98;8.93;;;;;;;11.34;100.00;102713.78;7373966;19;20412;-70
2022/10/18 00:19:54;;;;;;;14.05;7.75;;;;;;;11.29;100.00;102721.47;7372761;19;20360;-70
2022/10/18 00:22:24;;;;;;;14.80;8.85;;;;;;;11.26;100.00;102713.47;7376241;19;20025;-70
2022/10/18 00:24:56;;;;;;;23.38;10.68;;;;;;;11.24;100.00;102709.88;7376870;19;20002;-69
2022/10/18 00:27:26;;;;;;;21.63;10.25;;;;;;;11.21;100.00;102708.84;7377087;19;20439;-68
2022/10/18 00:29:56;;;;;;;19.15;9.90;;;;;;;11.21;100.00;102716.75;7373324;19;20018;-70
2022/10/18 00:32:26;;;;;;;16.90;10.18;;;;;;;11.16;100.00;102726.16;7380697;19;20018;-70
2022/10/18 00:34:56;;;;;;;18.17;9.18;;;;;;;11.09;100.00;102719.75;7375412;19;20319;-69
2022/10/18 00:37:26;;;;;;;17.20;8.82;;;;;;;11.02;100.00;102726.50;7379401;19;20011;-69
2022/10/18 00:39:58;;;;;;;15.45;9.57;;;;;;;10.99;100.00;102722.84;7378816;19;20034;-70
2022/10/18 00:42:31;;;;;;;17.90;9.23;;;;;;;10.95;100.00;102736.66;7378519;19;20014;-69
2022/10/18 00:45:24;;;;;;;18.48;9.77;;;;;;;10.95;100.00;102731.41;7376122;19;20050;-69
2022/10/18 00:47:56;;;;;;;16.08;9.65;;;;;;;10.93;100.00;102733.09;7378712;19;20447;-69
2022/10/18 00:50:28;;;;;;;17.50;9.60;;;;;;;10.90;100.00;102738.22;7378979;19;20379;-69
2022/10/18 00:53:00;;;;;;;16.92;9.23;;;;;;;10.88;100.00;102734.63;7372851;19;20011;-69
2022/10/18 00:55:34;;;;;;;19.00;9.35;;;;;;;10.86;100.00;102731.94;7378379;19;20017;-69
2022/10/18 00:58:05;;;;;;;15.65;9.40;;;;;;;10.85;100.00;102731.88;7379122;19;20010;-69
2022/10/18 01:00:37;;;;;;;16.25;10.05;;;;;;;10.82;100.00;102732.63;7373852;19;20050;-69
2022/10/18 01:03:09;;;;;;;16.85;9.38;;;;;;;10.79;100.00;102741.28;7379669;19;20410;-69
2022/10/18 01:05:44;;;;;;;18.17;9.55;;;;;;;10.77;100.00;102736.78;7378700;19;20018;-69
2022/10/18 01:08:41;;;;;;;18.23;9.80;;;;;;;10.72;100.00;102733.97;7377022;19;20451;-69
2022/10/18 01:11:26;;;;;;;17.30;8.90;;;;;;;10.66;100.00;102736.34;7379327;19;20527;-69
2022/10/18 01:14:04;;;;;;;18.80;9.82;;;;;;;10.64;100.00;102748.50;7377112;19;20030;-71
2022/10/18 01:16:39;;;;;;;14.57;9.20;;;;;;;10.60;100.00;102753.53;7376715;19;20015;-71
2022/10/18 01:19:34;;;;;;;15.65;8.95;;;;;;;10.55;100.00;102755.06;7378584;19;20029;-72
2022/10/18 01:22:10;;;;;;;17.25;8.57;;;;;;;10.49;100.00;102750.44;7379912;19;20019;-72
2022/10/18 01:25:02;;;;;;;17.17;8.57;;;;;;;10.49;100.00;102751.34;7372342;19;20018;-72
2022/10/18 01:27:45;;;;;;;16.88;8.40;;;;;;;10.49;100.00;102750.44;7376553;19;20028;-72
2022/10/18 01:30:41;;;;;;;17.40;9.35;;;;;;;10.49;100.00;102747.81;7375722;19;20011;-72
2022/10/18 01:33:21;;;;;;;17.30;8.60;;;;;;;10.46;100.00;102737.19;7375869;19;20006;-72
2022/10/18 01:35:55;;;;;;;23.13;9.65;;;;;;;10.44;100.00;102744.09;7373667;19;20571;-71
2022/10/18 01:38:27;;;;;;;18.38;8.75;;;;;;;10.40;100.00;102744.81;7373607;19;20007;-71
2022/10/18 01:40:59;;;;;;;18.98;7.90;;;;;;;10.39;100.00;102745.66;7369375;19;20023;-71
2022/10/18 01:43:31;;;;;;;16.88;8.43;;;;;;;10.38;100.00;102741.25;7379523;19;20015;-68
2022/10/18 01:46:06;;;;;;;17.60;8.57;;;;;;;10.35;100.00;102741.09;7377295;19;20503;-68
2022/10/18 01:48:38;;;;;;;19.80;9.93;;;;;;;10.33;100.00;102738.41;7371277;19;20010;-70
2022/10/18 01:51:08;;;;;;;17.60;8.52;;;;;;;10.30;100.00;102746.16;7378457;19;20448;-69
2022/10/18 01:53:37;;;;;;;16.27;8.68;;;;;;;10.28;100.00;102749.53;7373899;19;20197;-68
2022/10/18 01:56:19;;;;;;;18.38;8.77;;;;;;;10.24;100.00;102758.97;7372538;19;20474;-69
2022/10/18 01:58:57;;;;;;;14.45;7.90;;;;;;;10.21;100.00;102755.31;7377406;19;20011;-70
2022/10/18 02:01:35;;;;;;;14.82;7.80;;;;;;;10.18;100.00;102752.53;7366451;19;20486;-69
2022/10/18 02:04:20;;;;;;;17.25;8.63;;;;;;;10.20;100.00;102757.03;7372796;19;20010;-70
2022/10/18 02:06:56;;;;;;;14.02;7.15;;;;;;;10.17;100.00;102756.88;7374727;19;20018;-70
2022/10/18 02:09:37;;;;;;;13.32;7.22;;;;;;;10.14;100.00;102755.00;7374400;19;20015;-69
2022/10/18 02:12:11;;;;;;;13.30;7.40;;;;;;;10.07;100.00;102752.03;7374003;19;20240;-70
2022/10/18 02:14:41;;;;;;;;;;;;;;;10.03;100.00;102750.09;7373507;19;20019;-70
2022/10/18 02:17:14;;;;;;;13.57;6.90;;;;;;;9.98;100.00;102755.13;7371487;19;20554;-70
2022/10/18 02:19:47;;;;;;;11.40;6.50;;;;;;;9.96;100.00;102758.50;7359464;19;20018;-70
2022/10/18 02:22:19;;;;;;;12.45;6.47;;;;;;;9.92;100.00;102760.09;7373571;19;20058;-70
2022/10/18 02:24:54;;;;;;;16.30;7.32;;;;;;;9.91;100.00;102765.25;7374689;19;20011;-68
2022/10/18 02:27:24;;;;;;;12.30;6.30;;;;;;;9.89;100.00;102766.91;7374495;19;20018;-70
2022/10/18 02:29:55;;;;;;;12.85;6.68;;;;;;;9.86;100.00;102759.81;7364912;19;20303;-69
2022/10/18 02:32:35;;;;;;;14.05;6.90;;;;;;;9.86;100.00;102765.03;7367972;19;20019;-69
2022/10/18 02:35:12;;;;;;;13.23;7.03;;;;;;;9.85;100.00;102758.00;7368932;19;20077;-69
2022/10/18 02:37:44;;;;;;;11.20;6.13;;;;;;;9.83;100.00;102755.31;7370898;19;20073;-69
2022/10/18 02:40:14;;;;;;;13.25;6.28;;;;;;;9.82;100.00;102755.25;7369436;19;20323;-68
2022/10/18 02:42:48;;;;;;;15.65;7.00;;;;;;;9.82;100.00;102763.09;7371734;19;20021;-69
2022/10/18 02:45:19;;;;;;;13.68;8.10;;;;;;;9.86;100.00;102764.16;7369423;19;20015;-68
2022/10/18 02:47:51;;;;;;;16.23;7.70;;;;;;;9.78;100.00;102762.06;7373609;19;20014;-69
2022/10/18 02:50:21;;;;;;;21.08;8.40;;;;;;;9.72;100.00;102761.78;7371285;19;20013;-69
2022/10/18 02:52:50;;;;;;;19.10;8.07;;;;;;;9.69;100.00;102766.88;7365910;19;20013;-70
2022/10/18 02:55:20;;;;;;;15.05;8.20;;;;;;;9.66;100.00;102760.59;7371200;19;20017;-69
2022/10/18 02:57:50;;;;;;;15.57;7.10;;;;;;;9.62;100.00;102758.66;7373802;19;20021;-70
2022/10/18 03:00:20;;;;;;;14.32;6.30;;;;;;;9.57;100.00;102754.91;7372417;19;20014;-69
2022/10/18 03:02:52;;;;;;;11.93;6.18;;;;;;;9.52;100.00;102758.22;7370225;19;20010;-69
2022/10/18 03:05:22;;;;;;;15.65;7.43;;;;;;;9.51;100.00;102756.41;7371445;19;20021;-70
2022/10/18 03:07:52;;;;;;;13.35;7.70;;;;;;;9.51;100.00;102764.28;7368946;19;20048;-70
2022/10/18 03:10:21;;;;;;;12.50;7.38;;;;;;;9.51;100.00;102758.13;7368411;19;20014;-70
2022/10/18 03:12:51;;;;;;;14.48;6.63;;;;;;;9.48;100.00;102761.50;7369792;19;20036;-68
2022/10/18 03:15:21;;;;;;;12.07;6.53;;;;;;;9.45;100.00;102766.59;7374666;19;20013;-68
2022/10/18 03:17:53;;;;;;;14.93;7.70;;;;;;;9.46;100.00;102767.50;7370487;19;20015;-69
2022/10/18 03:20:23;;;;;;;12.55;6.22;;;;;;;9.41;100.00;102764.66;7369687;19;20020;-68
2022/10/18 03:22:52;;;;;;;13.25;5.93;;;;;;;9.37;100.00;102770.56;7371999;19;20022;-69
2022/10/18 03:25:22;;;;;;;11.32;6.18;;;;;;;9.36;100.00;102770.53;7372135;19;20475;-68
2022/10/18 03:27:52;;;;;;;13.82;7.38;;;;;;;9.33;100.00;102768.66;7369440;19;20025;-69
2022/10/18 03:30:21;;;;;;;14.68;7.43;;;;;;;9.37;100.00;102761.81;7369237;19;20017;-68
2022/10/18 03:32:53;;;;;;;13.13;6.38;;;;;;;9.35;100.00;102760.88;7365992;19;20064;-68
2022/10/18 03:35:24;;;;;;;14.60;6.93;;;;;;;9.36;100.00;102765.28;7370225;19;20191;-69
2022/10/18 03:37:53;;;;;;;16.45;6.80;;;;;;;9.39;100.00;102771.53;7367771;19;20281;-71
2022/10/18 03:40:23;;;;;;;13.15;6.38;;;;;;;9.41;100.00;102764.66;7365755;19;20007;-71
2022/10/18 03:42:53;;;;;;;13.45;6.47;;;;;;;9.41;100.00;102769.88;7367295;19;20680;-72
2022/10/18 03:45:22;;;;;;;10.13;5.43;;;;;;;9.37;100.00;102778.41;7368979;19;20014;-72
2022/10/18 03:48:02;;;;;;;17.75;6.88;;;;;;;9.33;100.00;102776.50;7369665;19;20040;-72
2022/10/18 03:50:32;;;;;;;11.98;6.15;;;;;;;9.32;100.00;102772.09;7364154;19;20089;-72
2022/10/18 03:53:01;;;;;;;13.50;6.00;;;;;;;9.30;100.00;102768.50;7364349;19;20030;-72
2022/10/18 03:55:31;;;;;;;12.18;5.75;;;;;;;9.29;100.00;102763.19;7369866;19;20434;-72
2022/10/18 03:58:01;;;;;;;11.77;5.80;;;;;;;9.29;100.00;102764.09;7367335;19;20010;-72
2022/10/18 04:00:30;;;;;;;10.70;5.32;;;;;;;9.29;100.00;102763.19;7369350;19;20010;-73
2022/10/18 04:03:03;;;;;;;11.02;5.20;;;;;;;9.29;100.00;102761.47;7366452;19;20022;-72
2022/10/18 04:05:33;;;;;;;11.25;6.22;;;;;;;9.29;100.00;102758.84;7370473;19;20094;-72
2022/10/18 04:08:03;;;;;;;13.63;6.40;;;;;;;9.32;100.00;102765.97;7369593;19;20010;-72
2022/10/18 04:10:33;;;;;;;13.27;6.70;;;;;;;9.32;100.00;102774.72;7370529;19;20018;-73
2022/10/18 04:13:02;;;;;;;12.10;6.32;;;;;;;9.30;100.00;102776.34;7368147;19;20007;-72
2022/10/18 04:15:32;;;;;;;10.65;5.60;;;;;;;9.26;100.00;102763.94;7370740;19;20372;-71
2022/10/18 04:18:05;;;;;;;12.52;6.53;;;;;;;9.23;100.00;102760.28;7368128;19;20351;-71
2022/10/18 04:20:34;;;;;;;12.77;5.38;;;;;;;9.22;100.00;102753.25;7372222;19;20014;-71
2022/10/18 04:23:04;;;;;;;12.00;5.93;;;;;;;9.21;100.00;102751.44;7375217;19;20015;-71
2022/10/18 04:25:37;;;;;;;11.15;6.20;;;;;;;9.18;100.00;102763.56;7377943;19;20029;-71
2022/10/18 04:28:07;;;;;;;22.92;7.72;;;;;;;9.20;100.00;102765.34;7367646;19;21280;-71
2022/10/18 04:30:36;;;;;;;13.10;6.63;;;;;;;9.16;100.00;102770.44;7366789;19;20030;-71
2022/10/18 04:33:09;;;;;;;18.83;7.95;;;;;;;9.13;100.00;102769.38;7368686;19;20017;-71
2022/10/18 04:35:38;;;;;;;13.55;7.60;;;;;;;9.07;100.00;102774.31;7374113;19;20130;-71
2022/10/18 04:38:08;;;;;;;13.82;6.50;;;;;;;9.04;100.00;102771.53;7370783;19;20010;-71
2022/10/18 04:40:38;;;;;;;16.17;6.32;;;;;;;9.05;100.00;102778.56;7368953;19;20046;-72
2022/10/18 04:43:08;;;;;;;10.32;6.10;;;;;;;9.06;100.00;102781.28;7365267;19;20266;-71
2022/10/18 04:45:38;;;;;;;10.63;5.38;;;;;;;9.04;100.00;102782.00;7366971;19;20307;-71
2022/10/18 04:48:11;;;;;;;13.65;5.65;;;;;;;9.05;100.00;102784.72;7368494;19;20119;-72
2022/10/18 04:50:40;;;;;;;9.27;5.57;;;;;;;9.06;100.00;102781.28;7368776;19;20153;-71
2022/10/18 04:53:10;;;;;;;12.68;5.55;;;;;;;9.05;100.00;102783.81;7365794;19;20022;-73
2022/10/18 04:55:40;;;;;;;9.68;5.28;;;;;;;9.05;100.00;102789.03;7366809;19;20006;-72
2022/10/18 04:58:10;;;;;;;9.45;5.13;;;;;;;9.05;100.00;102792.56;7366353;19;20508;-72
2022/10/18 05:00:40;;;;;;;11.82;5.82;;;;;;;9.06;100.00;102785.59;7369171;19;20374;-72
2022/10/18 05:03:14;;;;;;;8.80;5.03;;;;;;;9.04;100.00;102792.47;7368761;19;20042;-71
2022/10/18 05:05:44;;;;;;;9.13;4.78;;;;;;;9.05;100.00;102791.66;7371262;19;20015;-71
2022/10/18 05:08:32;;;;;;;12.75;7.25;;;;;;;9.03;100.00;102804.66;7370219;19;20504;-71
2022/10/18 05:11:03;;;;;;;13.63;7.35;;;;;;;9.00;100.00;102795.75;7371363;19;20010;-72
2022/10/18 05:13:33;;;;;;;17.63;7.07;;;;;;;8.97;100.00;102804.34;7375532;19;20077;-72
2022/10/18 05:16:03;;;;;;;17.00;6.60;;;;;;;8.95;100.00;102807.72;7375542;19;20010;-72
2022/10/18 05:18:35;;;;;;;16.95;7.63;;;;;;;8.92;100.00;102818.94;7379309;19;20021;-72
2022/10/18 05:21:12;;;;;;;9.18;5.60;;;;;;;8.89;100.00;102813.53;7372063;19;20021;-72
2022/10/18 05:23:42;;;;;;;17.55;8.38;;;;;;;8.89;100.00;102817.88;7375062;19;20086;-73
2022/10/18 05:26:12;;;;;;;14.23;7.75;;;;;;;8.84;100.00;102821.16;7376851;19;20023;-73
2022/10/18 05:28:41;;;;;;;11.93;6.55;;;;;;;8.77;100.00;102821.66;7384439;19;20014;-73
2022/10/18 05:31:12;;;;;;;11.60;6.07;;;;;;;8.75;100.00;102812.81;7377087;19;20440;-73
2022/10/18 05:33:45;;;;;;;9.38;5.20;;;;;;;8.70;100.00;102806.44;7373108;19;20014;-73
2022/10/18 05:36:14;;;;;;;10.65;5.68;;;;;;;8.68;100.00;102802.84;7382756;19;20018;-73
2022/10/18 05:38:46;;;;;;;12.88;6.55;;;;;;;8.65;100.00;102813.16;7376455;19;20026;-73
2022/10/18 05:41:16;;;;;;;11.02;5.70;;;;;;;8.65;100.00;102823.63;7369315;19;20028;-73
2022/10/18 05:43:46;;;;;;;9.63;5.13;;;;;;;8.62;100.00;102820.84;7375534;19;20054;-73
2022/10/18 05:46:17;;;;;;;13.18;6.00;;;;;;;8.60;100.00;102821.59;7371562;19;20086;-73
2022/10/18 05:48:52;;;;;;;10.20;5.65;;;;;;;8.55;100.00;102817.81;7373737;19;20019;-70
2022/10/18 05:51:22;;;;;;;9.63;5.28;;;;;;;8.51;100.00;102822.00;7372805;19;20007;-70
2022/10/18 05:53:53;;;;;;;12.00;5.35;;;;;;;8.47;100.00;102828.78;7364302;19;20013;-70
2022/10/18 05:56:23;;;;;;;8.80;4.75;;;;;;;8.45;100.00;102837.34;7381026;19;20002;-70
2022/10/18 05:58:53;;;;;;;10.73;5.10;;;;;;;8.42;100.00;102837.19;7377467;19;20018;-70
2022/10/18 06:01:23;;;;;;;11.68;5.97;;;;;;;8.41;100.00;102830.16;7373841;19;20022;-70
2022/10/18 06:03:55;;;;;;;9.50;4.72;;;;;;;8.40;100.00;102830.97;7374564;19;20066;-71
2022/10/18 06:06:25;;;;;;;10.23;4.97;;;;;;;8.37;100.00;102841.28;7372425;19;20030;-70
2022/10/18 06:08:55;;;;;;;8.38;4.68;;;;;;;8.40;100.00;102854.50;7378020;19;20502;-70
2022/10/18 06:11:25;;;;;;;7.93;4.47;;;;;;;8.39;100.00;102850.09;7378973;19;20007;-70
2022/10/18 06:13:56;;;;;;;9.70;4.55;;;;;;;8.38;100.00;102853.53;7372902;19;20026;-70
2022/10/18 06:16:27;;;;;;;10.13;4.45;;;;;;;8.37;100.00;102844.78;7373132;19;20328;-70
2022/10/18 06:19:03;;;;;;;10.55;4.60;;;;;;;8.37;100.00;102856.97;7374707;19;20103;-71
2022/10/18 06:21:33;;;;;;;11.15;5.20;;;;;;;8.35;100.00;102872.56;7373962;19;20015;-70
2022/10/18 06:24:03;;;;;;;10.95;5.28;;;;;;;8.36;100.00;102876.97;7375014;19;20418;-70
2022/10/18 06:26:32;;;;;;;24.92;13.30;;;;;;;8.36;100.00;102876.97;7375823;19;20029;-69
2022/10/18 06:29:02;;;;;;;19.90;9.82;;;;;;;8.36;100.00;102871.75;7376024;19;20078;-69
2022/10/18 06:31:32;;;;;;;18.50;8.40;;;;;;;8.35;100.00;102882.13;7374443;19;20006;-69
2022/10/18 06:34:04;;;;;;;12.77;6.55;;;;;;;8.33;100.00;102882.03;7368094;19;20022;-69
2022/10/18 06:36:34;;;;;;;11.65;6.07;;;;;;;8.33;100.00;102891.59;7374779;19;20081;-69
2022/10/18 06:39:04;;;;;;;9.65;5.25;;;;;;;8.31;100.00;102891.50;7375092;19;20021;-69
2022/10/18 06:41:34;;;;;;;10.13;5.35;;;;;;;8.34;100.00;102890.78;7371774;19;20096;-68
2022/10/18 06:44:12;;;;;;;10.93;6.18;;;;;;;8.33;100.00;102882.03;7373166;19;20017;-69
2022/10/18 06:46:42;;;;;;;9.70;5.30;;;;;;;8.33;100.00;102881.13;7378659;19;20074;-69
2022/10/18 06:49:18;;;;;;;12.05;5.60;;;;;;;8.34;100.00;102888.16;7373236;19;20027;-71
2022/10/18 06:51:48;;;;;;;10.05;4.88;;;;;;;8.33;100.00;102902.94;7371989;19;20010;-70
2022/10/18 06:54:18;;;;;;;11.48;5.53;;;;;;;8.34;100.00;102909.09;7371235;19;20383;-70
2022/10/18 06:56:48;;;;;;;9.65;5.45;;;;;;;8.36;100.00;102897.00;7373147;19;20014;-70
2022/10/18 06:59:18;;;;;;;9.52;5.53;;;;;;;8.39;100.00;102898.06;7374454;19;20006;-70
2022/10/18 07:01:47;;;;;;;11.30;5.72;;;;;;;8.39;100.00;102902.38;7379605;19;20015;-69
2022/10/18 07:04:19;;;;;;;8.95;5.75;;;;;;;8.39;100.00;102913.75;7377746;19;20018;-70
2022/10/18 07:06:49;;;;;;;8.95;5.22;;;;;;;8.39;100.00;102912.84;7380080;19;20018;-71
2022/10/18 07:09:19;;;;;;;11.30;5.22;;;;;;;8.46;100.00;102915.88;7378850;19;20006;-70
2022/10/18 07:11:48;;;;;;;9.95;5.15;;;;;;;8.48;100.00;102913.34;7380712;19;20060;-70
2022/10/18 07:14:18;;;;;;;10.68;5.55;;;;;;;8.47;100.00;102911.56;7380086;19;20006;-70
2022/10/18 07:16:47;;;;;;;13.00;6.03;;;;;;;8.49;100.00;102917.78;7381096;19;20023;-70
2022/10/18 07:19:20;;;;;;;12.65;6.05;;;;;;;8.54;100.00;102929.38;7377891;19;20087;-70
2022/10/18 07:21:49;;;;;;;11.88;5.82;;;;;;;8.57;100.00;102929.56;7379480;19;20022;-70
2022/10/18 07:24:19;;;;;;;11.88;6.38;;;;;;;8.58;100.00;102930.44;7378434;19;20025;-72
2022/10/18 07:26:49;;;;;;;13.88;7.07;;;;;;;8.62;100.00;102929.81;7379154;19;20018;-71
2022/10/18 07:29:18;;;;;;;13.93;6.75;;;;;;;8.62;100.00;102935.94;7377107;19;20015;-70
2022/10/18 07:31:48;;;;;;;12.50;6.72;;;;;;;8.69;100.00;102945.00;7378303;19;20081;-70
2022/10/18 07:34:20;;;;;;;12.68;6.50;;;;;;;8.75;100.00;102941.00;7377063;19;20018;-71
2022/10/18 07:36:50;;;;;;;12.38;6.20;;;;;;;8.90;100.00;102940.94;7379664;19;20014;-71
2022/10/18 07:39:19;;;;;;;14.55;7.53;;;;;;;9.02;100.00;102944.22;7380033;19;20018;-71
2022/10/18 07:41:49;;;;;;;16.08;8.00;;;;;;;9.17;100.00;102950.25;7375655;19;20025;-72
2022/10/18 07:44:19;;;;;;;20.30;8.02;;;;;;;9.20;100.00;102953.84;7377317;19;20030;-72
2022/10/18 07:46:48;;;;;;;17.23;8.23;;;;;;;9.28;100.00;102956.03;7380059;19;20021;-71
2022/10/18 07:49:21;;;;;;;15.75;7.57;;;;;;;9.30;100.00;102962.25;7379310;19;20535;-70
2022/10/18 07:51:51;;;;;;;13.02;6.93;;;;;;;9.30;100.00;102969.22;7377892;19;21065;-71
2022/10/18 07:54:21;;;;;;;11.40;7.35;;;;;;;9.35;100.00;102971.25;7374632;19;20084;-70
2022/10/18 07:56:50;;;;;;;11.88;6.40;;;;;;;9.51;100.00;102971.19;7379764;19;20303;-71
2022/10/18 07:59:20;;;;;;;13.48;7.10;;;;;;;9.83;100.00;102974.56;7378370;19;20010;-72
2022/10/18 08:01:50;;;;;;;14.98;7.22;;;;;;;9.80;100.00;102970.06;7375913;19;20022;-71
2022/10/18 08:04:22;;;;;;;13.15;7.82;;;;;;;9.95;100.00;102969.03;7377792;19;20402;-72
2022/10/18 08:06:52;;;;;;;15.98;7.45;;;;;;;10.02;100.00;102969.41;7378153;19;20010;-71
2022/10/18 08:09:22;;;;;;;15.38;8.38;;;;;;;10.10;100.00;102970.69;7374752;19;20015;-71
2022/10/18 08:11:51;;;;;;;15.43;8.18;;;;;;;10.20;100.00;102973.78;7375430;19;20023;-71
2022/10/18 08:14:21;;;;;;;13.45;7.85;;;;;;;10.34;100.00;102972.72;7376533;19;20503;-71
2022/10/18 08:16:50;;;;;;;15.13;8.25;;;;;;;10.52;100.00;102976.22;7376253;19;20011;-72
2022/10/18 08:19:23;;;;;;;16.52;8.85;;;;;;;10.63;100.00;102972.34;7376640;19;20420;-72
2022/10/18 08:21:53;;;;;;;16.40;8.65;;;;;;;10.81;100.00;102974.94;7377477;19;20011;-72
2022/10/18 08:24:24;;;;;;;15.70;8.85;;;;;;;10.96;100.00;102977.38;7374498;19;20025;-71
2022/10/18 08:26:53;;;;;;;16.80;10.05;;;;;;;11.22;100.00;102974.19;7378977;19;20044;-71
2022/10/18 08:29:23;;;;;;;19.63;11.38;;;;;;;11.48;100.00;102977.94;7377415;19;20017;-71
2022/10/18 08:31:59;;;;;;;17.65;10.88;;;;;;;11.68;100.00;102974.44;7378793;19;20086;-70
2022/10/18 08:34:32;;;;;;;23.17;11.95;;;;;;;11.95;100.00;102973.84;7377336;19;20482;-70
2022/10/18 08:37:05;;;;;;;19.55;11.85;;;;;;;12.12;100.00;102967.53;7379271;19;20570;-70
2022/10/18 08:39:34;;;;;;;22.23;11.73;;;;;;;12.32;100.00;102965.72;7376568;19;20103;-70
2022/10/18 08:42:32;;;;;;;21.98;11.25;;;;;;;12.49;100.00;102969.88;7376932;19;20007;-70
2022/10/18 08:45:06;;;;;;;19.00;8.45;;;;;;;12.67;100.00;102975.84;7378322;19;20048;-70
2022/10/18 08:47:56;;;;;;;18.52;8.30;;;;;;;12.89;100.00;102972.31;7384656;19;20425;-70
2022/10/18 08:50:35;;;;;;;22.63;9.73;;;;;;;13.07;100.00;102985.28;7383640;19;20007;-70
2022/10/18 08:53:14;;;;;;;22.92;10.23;;;;;;;13.26;100.00;102979.88;7378991;19;20014;-70
2022/10/18 08:55:47;;;;;;;20.15;9.52;;;;;;;13.46;100.00;102966.50;7380451;19;20015;-70
2022/10/18 08:58:20;;;;;;;22.83;9.00;;;;;;;13.58;100.00;102977.44;7382270;19;20445;-70
2022/10/18 09:01:04;;;;;;;20.75;6.75;;;;;;;13.70;100.00;102976.13;7384160;19;20579;-70
2022/10/18 09:03:56;;;;;;;15.77;6.38;;;;;;;13.93;100.00;102971.63;7381776;19;20078;-70
2022/10/18 09:06:36;;;;;;;15.82;5.70;;;;;;;14.14;100.00;102965.28;7382201;19;20483;-69
2022/10/18 09:09:21;;;;;;;18.52;5.45;;;;;;;14.12;100.00;102969.59;7384203;19;20027;-70
2022/10/18 09:12:04;;;;;;;15.45;5.30;;;;;;;14.39;100.00;102970.50;7380418;19;20404;-69
2022/10/18 09:15:00;;;;;;;18.20;4.03;;;;;;;14.52;100.00;102980.63;7382842;19;20011;-69
2022/10/18 09:17:38;;;;;;;15.10;3.90;;;;;;;14.52;100.00;102988.53;7385084;19;20006;-69
2022/10/18 09:20:24;;;;;;;10.30;3.53;;;;;;;14.70;100.00;102981.16;7379987;19;20130;-69
2022/10/18 09:23:00;;;;;;;6.97;2.83;;;;;;;14.89;100.00;102979.97;7382718;19;20015;-69
2022/10/18 09:25:37;;;;;;;17.02;3.30;;;;;;;14.99;100.00;102987.31;7378577;19;20014;-69
2022/10/18 09:28:27;;;;;;;12.65;2.70;;;;;;;15.02;100.00;102986.50;7381168;19;20011;-69
2022/10/18 09:31:06;;;;;;;9.60;2.08;;;;;;;15.01;100.00;102980.31;7383161;19;20026;-69
2022/10/18 09:33:55;;;;;;;8.27;2.45;;;;;;;14.96;100.00;102991.59;7382755;19;20011;-69
2022/10/18 09:36:31;;;;;;;9.27;2.63;;;;;;;15.04;100.00;102998.00;7382503;19;20197;-69
2022/10/18 09:39:06;;;;;;;9.38;2.50;;;;;;;15.10;100.00;103008.75;7383114;19;20076;-69
2022/10/18 09:41:46;;;;;;;7.65;2.20;;;;;;;15.19;100.00;103001.09;7381278;19;20434;-69
2022/10/18 09:44:22;;;;;;;10.18;2.22;;;;;;;15.19;100.00;103001.09;7380450;19;20018;-69
2022/10/18 09:46:57;;;;;;;8.23;2.20;;;;;;;15.40;100.00;103005.19;7382073;19;20050;-69
2022/10/18 09:49:32;;;;;;;9.75;3.47;;;;;;;15.62;100.00;103003.19;7382235;19;20011;-69
2022/10/18 09:52:09;;;;;;;8.50;2.28;;;;;;;15.69;100.00;103013.06;7382798;19;20106;-69
2022/10/18 09:54:46;;;;;;;6.75;2.42;;;;;;;15.73;100.00;103023.75;7378783;19;20010;-69
2022/10/18 09:57:23;;;;;;;5.25;1.92;;;;;;;15.78;100.00;103019.47;7379490;19;20010;-69
2022/10/18 09:59:53;;;;;;;7.18;2.38;;;;;;;15.73;100.00;103026.38;7381971;19;20226;-69
2022/10/18 10:02:24;;;;;;;10.00;2.65;;;;;;;15.88;100.00;103027.69;7382884;19;20022;-69
2022/10/18 10:04:55;;;;;;;5.70;2.20;;;;;;;15.99;100.00;103025.31;7380626;19;20051;-69
2022/10/18 10:07:28;;;;;;;5.68;2.55;;;;;;;16.19;100.00;103033.75;7379768;19;20018;-69
2022/10/18 10:10:14;;;;;;;10.20;2.95;;;;;;;16.51;100.00;103027.50;7378606;19;20034;-69
2022/10/18 10:12:44;;;;;;;7.93;1.95;;;;;;;16.50;100.00;103032.75;7382840;19;20015;-70
2022/10/18 10:15:21;;;;;;;7.82;2.00;;;;;;;16.55;100.00;103034.66;7378766;19;20624;-70
2022/10/18 10:18:02;;;;;;;8.95;2.00;;;;;;;16.43;100.00;103042.31;7381308;19;20330;-70
2022/10/18 10:20:37;;;;;;;8.02;2.03;;;;;;;16.51;100.00;103043.38;7381642;19;20010;-70
2022/10/18 10:23:08;;;;;;;6.70;1.92;;;;;;;16.52;100.00;103034.59;7379344;19;20034;-70
2022/10/18 10:25:43;;;;;;;9.32;2.15;;;;;;;16.56;100.00;103036.44;7378757;19;20018;-70
2022/10/18 10:28:17;;;;;;;7.57;2.13;;;;;;;16.61;100.00;103034.81;7380253;19;20007;-70
2022/10/18 10:30:47;;;;;;;9.57;2.97;;;;;;;16.68;100.00;103031.44;7380529;19;20014;-70
2022/10/18 10:33:34;;;;;;;8.90;2.65;;;;;;;16.87;100.00;103039.81;7379417;19;20011;-71
2022/10/18 10:36:05;;;;;;;7.95;2.03;;;;;;;16.92;100.00;103047.00;7380094;19;20100;-70
2022/10/18 10:38:35;;;;;;;9.27;2.40;;;;;;;16.85;100.00;103046.81;7380901;19;20014;-70
2022/10/18 10:41:21;;;;;;;8.73;1.90;;;;;;;16.99;100.00;103051.56;7376870;19;20010;-70
2022/10/18 10:43:52;;;;;;;8.52;2.22;;;;;;;17.06;100.00;103054.34;7380362;19;20010;-70
2022/10/18 10:46:22;;;;;;;5.78;1.70;;;;;;;17.22;100.00;103049.41;7379052;19;20445;-69
2022/10/18 10:48:55;;;;;;;9.20;2.15;;;;;;;17.57;100.00;103059.84;7377832;19;20293;-69
2022/10/18 10:51:45;;;;;;;8.37;2.00;;;;;;;17.78;100.00;103056.72;7380001;19;20013;-69
2022/10/18 10:54:35;;;;;;;4.95;1.67;;;;;;;17.77;100.00;103055.81;7377964;19;20534;-69
2022/10/18 10:57:21;;;;;;;6.93;1.65;;;;;;;17.82;100.00;103056.78;7379254;19;20011;-69
2022/10/18 10:59:53;;;;;;;6.85;2.00;;;;;;;17.65;100.00;103055.59;7380682;19;20013;-69
2022/10/18 11:02:27;;;;;;;5.40;1.70;;;;;;;17.48;100.00;103054.34;7379808;19;20007;-70
2022/10/18 11:05:16;;;;;;;7.38;1.85;;;;;;;17.58;100.00;103056.31;7380221;19;20015;-70
2022/10/18 11:07:48;;;;;;;11.95;2.10;;;;;;;17.61;100.00;103059.94;7378873;19;20015;-70
2022/10/18 11:10:24;;;;;;;9.88;2.20;;;;;;;17.67;100.00;103066.25;7380614;19;20010;-70
2022/10/18 11:13:04;;;;;;;7.03;1.95;;;;;;;17.79;100.00;103053.19;7372639;19;20026;-70
2022/10/18 11:15:39;;;;;;;7.43;2.17;;;;;;;17.94;100.00;103054.38;7377564;19;20017;-70
2022/10/18 11:18:18;;;;;;;7.38;1.63;;;;;;;18.05;100.00;103051.00;7375720;19;20011;-70
2022/10/18 11:20:54;;;;;;;7.85;1.80;;;;;;;18.24;100.00;103061.09;7372250;19;20014;-70
2022/10/18 11:23:30;;;;;;;7.50;1.90;;;;;;;17.97;100.00;103066.81;7375846;19;20015;-70
2022/10/18 11:26:15;;;;;;;5.22;1.85;;;;;;;17.91;100.00;103058.72;7377915;19;20078;-70
2022/10/18 11:29:19;;;;;;;4.80;1.52;;;;;;;18.27;100.00;103046.09;7378548;19;20010;-70
2022/10/18 11:31:57;;;;;;;7.53;1.70;;;;;;;18.57;100.00;103048.34;7375944;19;20011;-70
2022/10/18 11:34:41;;;;;;;6.72;1.83;;;;;;;18.14;99.99;103054.72;7374659;19;20010;-70
2022/10/18 11:37:29;;;;;;;8.00;2.00;;;;;;;18.53;99.31;103045.63;7378221;19;20503;-70
2022/10/18 11:40:16;;;;;;;5.65;2.05;;;;;;;18.20;99.50;103038.88;7375922;19;20030;-70
2022/10/18 11:42:53;;;;;;;7.18;1.70;;;;;;;17.92;96.02;103040.16;7374349;19;20006;-70
2022/10/18 11:45:39;;;;;;;6.00;1.58;;;;;;;17.91;96.03;103048.09;7376138;19;20022;-70